CFG8DF EDDB-EDDF
Flight info
| Callsign | CFG8DF |
|---|---|
| Flight time | 0h 43m |
| Altitude | 21000 |
| Route | KISUC1Q KISUC Z117 ODLUN/N0396F220 DCT ORTAG T177 ODIPI/N0389F210 T157 KERAX KERAX5A |
| Aircraft | A320/M-SDE3FGHIJ1LORVWXYZ/S |
Departure
| Time | 2026-05-07 08:09 |
|---|---|
| Airport | Berlin Brandenburg Airport (EDDB) |
Arrival
| Time | 2026-05-07 08:52 |
|---|---|
| Airport | Frankfurt Main Airport (EDDF) |
| Time | Latitude | Longitude | Altitude | Speed | Heading |
|---|---|---|---|---|---|
| 2026-05-07 07:28 | 52.36167 | 13.51477 | 155 ft | 0 kts | 338° |
| 2026-05-07 07:57 | 52.36163 | 13.51480 | 155 ft | 3 kts | 338° |
| 2026-05-07 07:57 | 52.36138 | 13.51495 | 155 ft | 4 kts | 340° |
| 2026-05-07 07:57 | 52.36118 | 13.51507 | 155 ft | 4 kts | 335° |
| 2026-05-07 07:57 | 52.36097 | 13.51531 | 155 ft | 4 kts | 297° |
| 2026-05-07 07:58 | 52.36094 | 13.51566 | 155 ft | 2 kts | 249° |
| 2026-05-07 07:58 | 52.36094 | 13.51568 | 154 ft | 0 kts | 249° |
| 2026-05-07 08:00 | 52.36087 | 13.51538 | 154 ft | 4 kts | 249° |
| 2026-05-07 08:00 | 52.36079 | 13.51505 | 154 ft | 2 kts | 249° |
| 2026-05-07 08:00 | 52.36074 | 13.51485 | 154 ft | 1 kts | 249° |
| 2026-05-07 08:00 | 52.36071 | 13.51471 | 154 ft | 4 kts | 249° |
| 2026-05-07 08:01 | 52.36039 | 13.51329 | 154 ft | 19 kts | 250° |
| 2026-05-07 08:01 | 52.35995 | 13.51142 | 154 ft | 15 kts | 247° |
| 2026-05-07 08:01 | 52.35957 | 13.50989 | 154 ft | 14 kts | 249° |
| 2026-05-07 08:01 | 52.35936 | 13.50900 | 154 ft | 12 kts | 249° |
| 2026-05-07 08:02 | 52.35897 | 13.50742 | 154 ft | 10 kts | 248° |
| 2026-05-07 08:02 | 52.35878 | 13.50671 | 154 ft | 10 kts | 239° |
| 2026-05-07 08:02 | 52.35825 | 13.50634 | 154 ft | 8 kts | 180° |
| 2026-05-07 08:02 | 52.35776 | 13.50612 | 154 ft | 7 kts | 210° |
| 2026-05-07 08:03 | 52.35748 | 13.50531 | 154 ft | 8 kts | 252° |
| 2026-05-07 08:03 | 52.35735 | 13.50462 | 154 ft | 11 kts | 250° |
| 2026-05-07 08:03 | 52.35700 | 13.50325 | 154 ft | 14 kts | 248° |
| 2026-05-07 08:03 | 52.35667 | 13.50185 | 154 ft | 12 kts | 250° |
| 2026-05-07 08:04 | 52.35638 | 13.50059 | 154 ft | 11 kts | 249° |
| 2026-05-07 08:04 | 52.35612 | 13.49945 | 154 ft | 10 kts | 249° |
| 2026-05-07 08:04 | 52.35588 | 13.49840 | 154 ft | 10 kts | 249° |
| 2026-05-07 08:04 | 52.35565 | 13.49743 | 154 ft | 9 kts | 248° |
| 2026-05-07 08:05 | 52.35542 | 13.49650 | 154 ft | 9 kts | 249° |
| 2026-05-07 08:05 | 52.35518 | 13.49557 | 154 ft | 9 kts | 246° |
| 2026-05-07 08:05 | 52.35493 | 13.49467 | 154 ft | 9 kts | 245° |
| 2026-05-07 08:05 | 52.35456 | 13.49315 | 154 ft | 23 kts | 249° |
| 2026-05-07 08:06 | 52.35401 | 13.49072 | 154 ft | 21 kts | 251° |
| 2026-05-07 08:06 | 52.35355 | 13.48866 | 154 ft | 18 kts | 249° |
| 2026-05-07 08:06 | 52.35314 | 13.48690 | 154 ft | 15 kts | 249° |
| 2026-05-07 08:06 | 52.35279 | 13.48543 | 154 ft | 12 kts | 248° |
| 2026-05-07 08:07 | 52.35221 | 13.48476 | 154 ft | 10 kts | 173° |
| 2026-05-07 08:07 | 52.35163 | 13.48517 | 154 ft | 8 kts | 155° |
| 2026-05-07 08:07 | 52.35117 | 13.48563 | 154 ft | 8 kts | 134° |
| 2026-05-07 08:07 | 52.35098 | 13.48663 | 154 ft | 11 kts | 96° |
| 2026-05-07 08:08 | 52.35086 | 13.48807 | 154 ft | 14 kts | 99° |
| 2026-05-07 08:08 | 52.35057 | 13.48950 | 154 ft | 12 kts | 117° |
| 2026-05-07 08:08 | 52.35080 | 13.49103 | 154 ft | 25 kts | 69° |
| 2026-05-07 08:08 | 52.35238 | 13.49763 | 155 ft | 96 kts | 69° |
| 2026-05-07 08:09 | 52.35563 | 13.51081 | 183 ft | 147 kts | 66° |
| 2026-05-07 08:09 | 52.35928 | 13.52717 | 698 ft | 155 kts | 81° |
| 2026-05-07 08:09 | 52.35632 | 13.54383 | 1413 ft | 162 kts | 126° |
| 2026-05-07 08:09 | 52.34784 | 13.55720 | 1892 ft | 181 kts | 137° |
| 2026-05-07 08:10 | 52.33532 | 13.56389 | 2235 ft | 207 kts | 183° |
| 2026-05-07 08:10 | 52.32155 | 13.55512 | 2707 ft | 223 kts | 212° |
| 2026-05-07 08:10 | 52.30839 | 13.53929 | 3034 ft | 247 kts | 217° |
| 2026-05-07 08:10 | 52.29445 | 13.52094 | 3529 ft | 266 kts | 218° |
| 2026-05-07 08:11 | 52.27997 | 13.50150 | 4358 ft | 272 kts | 219° |
| 2026-05-07 08:11 | 52.26765 | 13.47770 | 5156 ft | 279 kts | 244° |
| 2026-05-07 08:11 | 52.26292 | 13.44724 | 6036 ft | 279 kts | 270° |
| 2026-05-07 08:11 | 52.26293 | 13.41533 | 6886 ft | 282 kts | 272° |
| 2026-05-07 08:12 | 52.26303 | 13.38331 | 7774 ft | 283 kts | 272° |
| 2026-05-07 08:12 | 52.26308 | 13.35106 | 8661 ft | 285 kts | 271° |
| 2026-05-07 08:12 | 52.26307 | 13.31861 | 9567 ft | 286 kts | 271° |
| 2026-05-07 08:12 | 52.26304 | 13.28613 | 10393 ft | 288 kts | 271° |
| 2026-05-07 08:13 | 52.26293 | 13.25314 | 11162 ft | 291 kts | 269° |
| 2026-05-07 08:13 | 52.25964 | 13.22024 | 11870 ft | 298 kts | 254° |
| 2026-05-07 08:13 | 52.25105 | 13.18821 | 12173 ft | 320 kts | 239° |
| 2026-05-07 08:13 | 52.23899 | 13.15609 | 12332 ft | 343 kts | 238° |
| 2026-05-07 08:14 | 52.22621 | 13.12220 | 12766 ft | 356 kts | 239° |
| 2026-05-07 08:14 | 52.21316 | 13.08756 | 13410 ft | 361 kts | 238° |
| 2026-05-07 08:14 | 52.19997 | 13.05243 | 14078 ft | 364 kts | 238° |
| 2026-05-07 08:14 | 52.18675 | 13.01708 | 14717 ft | 367 kts | 238° |
| 2026-05-07 08:15 | 52.17379 | 12.98156 | 15360 ft | 370 kts | 239° |
| 2026-05-07 08:15 | 52.16087 | 12.94448 | 15991 ft | 373 kts | 239° |
| 2026-05-07 08:15 | 52.14842 | 12.90779 | 16610 ft | 376 kts | 240° |
| 2026-05-07 08:15 | 52.13566 | 12.86975 | 17276 ft | 379 kts | 240° |
| 2026-05-07 08:16 | 52.12317 | 12.83261 | 17956 ft | 380 kts | 240° |
| 2026-05-07 08:16 | 52.11034 | 12.79478 | 18535 ft | 383 kts | 239° |
| 2026-05-07 08:16 | 52.09739 | 12.75695 | 19085 ft | 385 kts | 240° |
| 2026-05-07 08:16 | 52.08455 | 12.71974 | 19604 ft | 387 kts | 240° |
| 2026-05-07 08:17 | 52.07127 | 12.68137 | 20094 ft | 391 kts | 239° |
| 2026-05-07 08:17 | 52.05780 | 12.64260 | 20592 ft | 395 kts | 239° |
| 2026-05-07 08:17 | 52.04425 | 12.60360 | 21139 ft | 398 kts | 240° |
| 2026-05-07 08:17 | 52.03060 | 12.56424 | 21676 ft | 401 kts | 239° |
| 2026-05-07 08:18 | 52.01684 | 12.52463 | 21922 ft | 402 kts | 239° |
| 2026-05-07 08:18 | 52.00295 | 12.48476 | 21973 ft | 408 kts | 239° |
| 2026-05-07 08:18 | 51.98895 | 12.44462 | 21967 ft | 409 kts | 239° |
| 2026-05-07 08:18 | 51.97493 | 12.40439 | 21967 ft | 410 kts | 240° |
| 2026-05-07 08:19 | 51.96086 | 12.36413 | 21960 ft | 410 kts | 238° |
| 2026-05-07 08:19 | 51.94682 | 12.32406 | 21972 ft | 410 kts | 239° |
| 2026-05-07 08:19 | 51.93287 | 12.28432 | 21979 ft | 410 kts | 239° |
| 2026-05-07 08:19 | 51.91884 | 12.24442 | 21961 ft | 406 kts | 240° |
| 2026-05-07 08:20 | 51.90485 | 12.20466 | 21965 ft | 405 kts | 239° |
| 2026-05-07 08:20 | 51.89092 | 12.16505 | 21972 ft | 405 kts | 239° |
| 2026-05-07 08:20 | 51.87694 | 12.12535 | 21954 ft | 407 kts | 239° |
| 2026-05-07 08:20 | 51.86290 | 12.08564 | 21945 ft | 407 kts | 239° |
| 2026-05-07 08:21 | 51.84882 | 12.04590 | 21942 ft | 408 kts | 239° |
| 2026-05-07 08:21 | 51.83469 | 12.00607 | 21943 ft | 408 kts | 239° |
| 2026-05-07 08:21 | 51.82056 | 11.96622 | 21946 ft | 409 kts | 239° |
| 2026-05-07 08:21 | 51.80640 | 11.92638 | 21953 ft | 409 kts | 239° |
| 2026-05-07 08:22 | 51.79222 | 11.88656 | 21955 ft | 409 kts | 239° |
| 2026-05-07 08:22 | 51.77801 | 11.84670 | 21957 ft | 409 kts | 238° |
| 2026-05-07 08:22 | 51.76375 | 11.80684 | 21967 ft | 410 kts | 238° |
| 2026-05-07 08:22 | 51.74947 | 11.76707 | 21974 ft | 411 kts | 238° |
| 2026-05-07 08:23 | 51.73514 | 11.72716 | 21974 ft | 411 kts | 239° |
| 2026-05-07 08:23 | 51.72084 | 11.68728 | 21975 ft | 409 kts | 239° |
| 2026-05-07 08:23 | 51.70659 | 11.64762 | 21978 ft | 408 kts | 239° |
| 2026-05-07 08:23 | 51.69237 | 11.60809 | 21985 ft | 407 kts | 239° |
| 2026-05-07 08:24 | 51.67836 | 11.56921 | 21981 ft | 407 kts | 239° |
| 2026-05-07 08:24 | 51.66408 | 11.52972 | 21987 ft | 407 kts | 238° |
| 2026-05-07 08:24 | 51.65003 | 11.49103 | 21955 ft | 408 kts | 238° |
| 2026-05-07 08:24 | 51.63572 | 11.45165 | 21956 ft | 407 kts | 238° |
| 2026-05-07 08:25 | 51.62149 | 11.41245 | 21957 ft | 407 kts | 239° |
| 2026-05-07 08:25 | 51.60715 | 11.37300 | 21967 ft | 407 kts | 238° |
| 2026-05-07 08:25 | 51.59288 | 11.33377 | 21970 ft | 406 kts | 238° |
| 2026-05-07 08:25 | 51.57856 | 11.29449 | 21966 ft | 407 kts | 238° |
| 2026-05-07 08:26 | 51.55003 | 11.21655 | 21970 ft | 406 kts | 238° |
| 2026-05-07 08:26 | 51.53570 | 11.17744 | 21967 ft | 407 kts | 238° |
| 2026-05-07 08:26 | 51.52133 | 11.13830 | 21970 ft | 407 kts | 238° |
| 2026-05-07 08:27 | 51.50695 | 11.09912 | 21972 ft | 407 kts | 238° |
| 2026-05-07 08:27 | 51.49254 | 11.05990 | 21963 ft | 409 kts | 239° |
| 2026-05-07 08:27 | 51.47829 | 11.02120 | 21949 ft | 409 kts | 238° |
| 2026-05-07 08:27 | 51.46369 | 10.98178 | 21949 ft | 410 kts | 238° |
| 2026-05-07 08:28 | 51.44912 | 10.94246 | 21954 ft | 410 kts | 238° |
| 2026-05-07 08:28 | 51.43457 | 10.90318 | 21952 ft | 410 kts | 238° |
| 2026-05-07 08:28 | 51.42000 | 10.86394 | 21952 ft | 410 kts | 239° |
| 2026-05-07 08:28 | 51.40538 | 10.82461 | 21953 ft | 410 kts | 238° |
| 2026-05-07 08:29 | 51.39079 | 10.78537 | 21944 ft | 410 kts | 238° |
| 2026-05-07 08:29 | 51.37612 | 10.74600 | 21944 ft | 411 kts | 237° |
| 2026-05-07 08:29 | 51.36149 | 10.70682 | 21946 ft | 411 kts | 238° |
| 2026-05-07 08:29 | 51.34681 | 10.66753 | 21944 ft | 411 kts | 238° |
| 2026-05-07 08:30 | 51.33217 | 10.62837 | 21948 ft | 411 kts | 238° |
| 2026-05-07 08:30 | 51.31745 | 10.58917 | 21949 ft | 412 kts | 238° |
| 2026-05-07 08:30 | 51.30265 | 10.54989 | 21940 ft | 413 kts | 238° |
| 2026-05-07 08:30 | 51.28783 | 10.51058 | 21934 ft | 413 kts | 238° |
| 2026-05-07 08:31 | 51.27294 | 10.47220 | 21934 ft | 414 kts | 234° |
| 2026-05-07 08:31 | 51.25519 | 10.43568 | 21934 ft | 414 kts | 231° |
| 2026-05-07 08:31 | 51.23714 | 10.39985 | 21932 ft | 415 kts | 231° |
| 2026-05-07 08:31 | 51.21904 | 10.36396 | 21936 ft | 415 kts | 231° |
| 2026-05-07 08:32 | 51.20095 | 10.32808 | 21940 ft | 415 kts | 230° |
| 2026-05-07 08:32 | 51.18265 | 10.29252 | 21941 ft | 416 kts | 227° |
| 2026-05-07 08:32 | 51.16132 | 10.26154 | 21946 ft | 415 kts | 216° |
| 2026-05-07 08:32 | 51.13667 | 10.23777 | 21950 ft | 414 kts | 204° |
| 2026-05-07 08:33 | 51.10964 | 10.22204 | 21948 ft | 413 kts | 193° |
| 2026-05-07 08:33 | 51.08138 | 10.21487 | 21940 ft | 412 kts | 182° |
| 2026-05-07 08:33 | 51.05269 | 10.21404 | 21939 ft | 413 kts | 180° |
| 2026-05-07 08:33 | 51.02396 | 10.21355 | 21940 ft | 413 kts | 180° |
| 2026-05-07 08:34 | 50.99518 | 10.21298 | 21940 ft | 413 kts | 180° |
| 2026-05-07 08:34 | 50.96646 | 10.21242 | 21941 ft | 414 kts | 180° |
| 2026-05-07 08:34 | 50.93765 | 10.21187 | 21935 ft | 410 kts | 180° |
| 2026-05-07 08:34 | 50.90954 | 10.21131 | 21610 ft | 401 kts | 180° |
| 2026-05-07 08:35 | 50.88184 | 10.21078 | 21134 ft | 396 kts | 180° |
| 2026-05-07 08:35 | 50.85444 | 10.20799 | 20602 ft | 394 kts | 189° |
| 2026-05-07 08:35 | 50.82807 | 10.19688 | 20078 ft | 392 kts | 201° |
| 2026-05-07 08:35 | 50.80405 | 10.17714 | 19570 ft | 389 kts | 215° |
| 2026-05-07 08:36 | 50.78356 | 10.14951 | 19094 ft | 386 kts | 228° |
| 2026-05-07 08:36 | 50.76770 | 10.11572 | 18632 ft | 382 kts | 241° |
| 2026-05-07 08:36 | 50.75568 | 10.07846 | 18134 ft | 380 kts | 244° |
| 2026-05-07 08:36 | 50.74395 | 10.04131 | 17595 ft | 377 kts | 244° |
| 2026-05-07 08:37 | 50.73218 | 10.00437 | 17107 ft | 374 kts | 243° |
| 2026-05-07 08:37 | 50.72048 | 9.96796 | 16633 ft | 371 kts | 244° |
| 2026-05-07 08:37 | 50.70884 | 9.93181 | 16156 ft | 368 kts | 243° |
| 2026-05-07 08:37 | 50.69731 | 9.89602 | 15682 ft | 365 kts | 243° |
| 2026-05-07 08:38 | 50.68519 | 9.86119 | 15235 ft | 362 kts | 235° |
| 2026-05-07 08:38 | 50.66850 | 9.83171 | 14782 ft | 359 kts | 227° |
| 2026-05-07 08:38 | 50.65087 | 9.80392 | 14319 ft | 357 kts | 226° |
| 2026-05-07 08:38 | 50.63328 | 9.77651 | 13866 ft | 355 kts | 226° |
| 2026-05-07 08:39 | 50.61575 | 9.74929 | 13372 ft | 353 kts | 226° |
| 2026-05-07 08:39 | 50.59832 | 9.72227 | 12867 ft | 350 kts | 226° |
| 2026-05-07 08:39 | 50.58104 | 9.69552 | 12368 ft | 348 kts | 226° |
| 2026-05-07 08:39 | 50.56386 | 9.66893 | 11861 ft | 345 kts | 226° |
| 2026-05-07 08:40 | 50.54678 | 9.64254 | 11382 ft | 343 kts | 225° |
| 2026-05-07 08:40 | 50.52983 | 9.61634 | 11022 ft | 340 kts | 225° |
| 2026-05-07 08:40 | 50.51293 | 9.59023 | 10956 ft | 341 kts | 226° |
| 2026-05-07 08:40 | 50.49599 | 9.56413 | 10969 ft | 342 kts | 226° |
| 2026-05-07 08:41 | 50.47899 | 9.53788 | 10968 ft | 342 kts | 225° |
| 2026-05-07 08:41 | 50.46210 | 9.51177 | 10780 ft | 340 kts | 225° |
| 2026-05-07 08:41 | 50.44506 | 9.48546 | 10103 ft | 344 kts | 226° |
| 2026-05-07 08:41 | 50.42825 | 9.45956 | 9545 ft | 343 kts | 226° |
| 2026-05-07 08:42 | 50.41127 | 9.43346 | 8985 ft | 340 kts | 225° |
| 2026-05-07 08:42 | 50.39440 | 9.40760 | 8451 ft | 338 kts | 225° |
| 2026-05-07 08:42 | 50.37766 | 9.38199 | 7908 ft | 335 kts | 225° |
| 2026-05-07 08:42 | 50.36106 | 9.35658 | 7358 ft | 333 kts | 226° |
| 2026-05-07 08:43 | 50.34452 | 9.33132 | 7031 ft | 331 kts | 225° |
| 2026-05-07 08:43 | 50.32799 | 9.30611 | 6962 ft | 331 kts | 225° |
| 2026-05-07 08:43 | 50.31152 | 9.28099 | 6975 ft | 332 kts | 225° |
| 2026-05-07 08:43 | 50.29493 | 9.25568 | 6979 ft | 331 kts | 225° |
| 2026-05-07 08:44 | 50.27857 | 9.23075 | 6506 ft | 328 kts | 226° |
| 2026-05-07 08:44 | 50.26227 | 9.20591 | 5888 ft | 326 kts | 226° |
| 2026-05-07 08:44 | 50.24605 | 9.18120 | 5295 ft | 325 kts | 226° |
| 2026-05-07 08:44 | 50.22995 | 9.15667 | 4734 ft | 323 kts | 226° |
| 2026-05-07 08:45 | 50.21392 | 9.13227 | 4182 ft | 321 kts | 226° |
| 2026-05-07 08:45 | 50.19811 | 9.10832 | 3988 ft | 309 kts | 226° |
| 2026-05-07 08:45 | 50.18806 | 9.09319 | 3990 ft | 297 kts | 225° |
| 2026-05-07 08:45 | 50.17374 | 9.07172 | 3993 ft | 277 kts | 226° |
| 2026-05-07 08:46 | 50.16009 | 9.05119 | 3998 ft | 270 kts | 226° |
| 2026-05-07 08:46 | 50.14740 | 9.02979 | 4002 ft | 267 kts | 236° |
| 2026-05-07 08:46 | 50.13853 | 9.00514 | 4002 ft | 252 kts | 250° |
| 2026-05-07 08:46 | 50.13270 | 8.98046 | 4004 ft | 234 kts | 253° |
| 2026-05-07 08:47 | 50.12745 | 8.95704 | 4004 ft | 227 kts | 253° |
| 2026-05-07 08:47 | 50.12212 | 8.93401 | 4007 ft | 226 kts | 252° |
| 2026-05-07 08:47 | 50.11676 | 8.91115 | 4005 ft | 221 kts | 252° |
| 2026-05-07 08:47 | 50.11164 | 8.88941 | 4002 ft | 207 kts | 253° |
| 2026-05-07 08:48 | 50.10677 | 8.86867 | 4004 ft | 202 kts | 253° |
| 2026-05-07 08:48 | 50.10196 | 8.84816 | 3899 ft | 200 kts | 253° |
| 2026-05-07 08:48 | 50.09724 | 8.82816 | 3678 ft | 193 kts | 253° |
| 2026-05-07 08:48 | 50.09265 | 8.80867 | 3414 ft | 190 kts | 253° |
| 2026-05-07 08:49 | 50.08816 | 8.78961 | 3171 ft | 186 kts | 253° |
| 2026-05-07 08:49 | 50.08368 | 8.77066 | 2905 ft | 185 kts | 253° |
| 2026-05-07 08:49 | 50.07928 | 8.75200 | 2646 ft | 184 kts | 253° |
| 2026-05-07 08:49 | 50.07484 | 8.73324 | 2404 ft | 183 kts | 252° |
| 2026-05-07 08:50 | 50.07049 | 8.71486 | 2150 ft | 177 kts | 252° |
| 2026-05-07 08:50 | 50.06641 | 8.69769 | 1933 ft | 159 kts | 253° |
| 2026-05-07 08:50 | 50.06274 | 8.68222 | 1716 ft | 146 kts | 253° |
| 2026-05-07 08:50 | 50.05929 | 8.66765 | 1505 ft | 142 kts | 252° |
| 2026-05-07 08:51 | 50.05592 | 8.65344 | 1315 ft | 139 kts | 252° |
| 2026-05-07 08:51 | 50.05263 | 8.63958 | 1123 ft | 137 kts | 252° |
| 2026-05-07 08:51 | 50.04933 | 8.62569 | 941 ft | 135 kts | 252° |
| 2026-05-07 08:51 | 50.04611 | 8.61201 | 746 ft | 135 kts | 252° |
| 2026-05-07 08:52 | 50.04284 | 8.59826 | 580 ft | 134 kts | 253° |
| 2026-05-07 08:52 | 50.03957 | 8.58475 | 400 ft | 132 kts | 252° |
| 2026-05-07 08:52 | 50.03675 | 8.57249 | 360 ft | 97 kts | 251° |
| 2026-05-07 08:52 | 50.03526 | 8.56642 | 353 ft | 42 kts | 249° |
| 2026-05-07 08:53 | 50.03445 | 8.56263 | 356 ft | 29 kts | 259° |
| 2026-05-07 08:53 | 50.03446 | 8.55978 | 348 ft | 20 kts | 278° |
| 2026-05-07 08:53 | 50.03472 | 8.55763 | 344 ft | 21 kts | 280° |
| 2026-05-07 08:53 | 50.03494 | 8.55537 | 350 ft | 22 kts | 277° |
| 2026-05-07 08:54 | 50.03452 | 8.55308 | 344 ft | 23 kts | 250° |
| 2026-05-07 08:54 | 50.03398 | 8.55073 | 346 ft | 23 kts | 250° |
| 2026-05-07 08:54 | 50.03341 | 8.54836 | 337 ft | 24 kts | 250° |
| 2026-05-07 08:54 | 50.03292 | 8.54631 | 338 ft | 19 kts | 249° |
| 2026-05-07 08:55 | 50.03288 | 8.54500 | 338 ft | 12 kts | 318° |
| 2026-05-07 08:55 | 50.03368 | 8.54449 | 339 ft | 13 kts | 340° |
| 2026-05-07 08:55 | 50.03448 | 8.54402 | 347 ft | 12 kts | 339° |
| 2026-05-07 08:55 | 50.03531 | 8.54354 | 345 ft | 13 kts | 339° |
| 2026-05-07 08:56 | 50.03627 | 8.54317 | 348 ft | 14 kts | 13° |
| 2026-05-07 08:56 | 50.03682 | 8.54418 | 349 ft | 12 kts | 70° |
| 2026-05-07 08:56 | 50.03708 | 8.54525 | 353 ft | 9 kts | 70° |
| 2026-05-07 08:56 | 50.03725 | 8.54601 | 352 ft | 6 kts | 70° |
| 2026-05-07 08:57 | 50.03738 | 8.54655 | 351 ft | 6 kts | 70° |
| 2026-05-07 08:57 | 50.03758 | 8.54739 | 358 ft | 11 kts | 70° |
| 2026-05-07 08:57 | 50.03791 | 8.54882 | 347 ft | 17 kts | 68° |
| 2026-05-07 08:57 | 50.03841 | 8.55085 | 351 ft | 23 kts | 70° |
| 2026-05-07 08:58 | 50.03900 | 8.55340 | 353 ft | 25 kts | 69° |
| 2026-05-07 08:58 | 50.03961 | 8.55598 | 352 ft | 27 kts | 68° |
| 2026-05-07 08:58 | 50.04030 | 8.55872 | 358 ft | 27 kts | 71° |
| 2026-05-07 08:58 | 50.04095 | 8.56148 | 355 ft | 27 kts | 69° |
| 2026-05-07 08:59 | 50.04162 | 8.56426 | 360 ft | 27 kts | 70° |
| 2026-05-07 08:59 | 50.04226 | 8.56690 | 364 ft | 24 kts | 70° |
| 2026-05-07 08:59 | 50.04273 | 8.56796 | 365 ft | 9 kts | 26° |
| 2026-05-07 08:59 | 50.04334 | 8.56822 | 360 ft | 10 kts | 12° |
| 2026-05-07 09:00 | 50.04405 | 8.56844 | 366 ft | 11 kts | 10° |
| 2026-05-07 09:00 | 50.04470 | 8.56896 | 363 ft | 10 kts | 60° |
| 2026-05-07 09:00 | 50.04471 | 8.56986 | 358 ft | 6 kts | 134° |
| 2026-05-07 09:00 | 50.04438 | 8.57005 | 362 ft | 4 kts | 160° |
| 2026-05-07 09:01 | 50.04414 | 8.57019 | 360 ft | 5 kts | 160° |
| 2026-05-07 09:01 | 50.04392 | 8.57032 | 359 ft | 0 kts | 159° |